createdAt,value
2023-05-21T00:01:08.066Z,93.50
2023-05-21T00:03:36.265Z,93.50
2023-05-21T00:06:03.948Z,93.30
2023-05-21T00:08:31.597Z,93.20
2023-05-21T00:10:58.338Z,93.30
2023-05-21T00:13:25.288Z,93.30
2023-05-21T00:15:52.168Z,93.50
2023-05-21T00:18:19.226Z,93.70
2023-05-21T00:20:45.976Z,93.90
2023-05-21T00:23:12.874Z,93.70
2023-05-21T00:25:39.689Z,93.80
2023-05-21T00:28:06.664Z,93.40
2023-05-21T00:30:33.580Z,93.50
2023-05-21T00:33:03.084Z,93.20
2023-05-21T00:35:30.284Z,93.50
2023-05-21T00:37:57.303Z,93.80
2023-05-21T00:40:24.676Z,93.90
2023-05-21T00:42:53.693Z,93.90
2023-05-21T00:45:20.526Z,93.70
2023-05-21T00:47:48.375Z,94.20
2023-05-21T00:50:16.294Z,94.30
2023-05-21T00:52:45.599Z,94.30
2023-05-21T00:55:12.826Z,94.30
2023-05-21T00:57:40.214Z,94.20
2023-05-21T01:00:08.795Z,94.60
2023-05-21T01:02:37.394Z,94.80
2023-05-21T01:05:08.265Z,95.00
2023-05-21T01:07:38.940Z,94.90
2023-05-21T01:10:08.334Z,95.20
2023-05-21T01:12:37.792Z,95.10
2023-05-21T01:15:05.397Z,94.80
2023-05-21T01:17:34.310Z,94.80
2023-05-21T01:20:01.773Z,95.10
2023-05-21T01:22:32.290Z,95.30
2023-05-21T01:25:02.737Z,95.70
2023-05-21T01:27:30.038Z,95.80
2023-05-21T01:29:57.236Z,95.20
2023-05-21T01:32:29.311Z,95.30
2023-05-21T01:35:11.205Z,95.40
2023-05-21T01:37:51.454Z,95.50
2023-05-21T01:40:25.291Z,95.30
2023-05-21T01:42:52.524Z,95.30
2023-05-21T01:45:22.384Z,95.20
2023-05-21T01:47:51.745Z,95.40
2023-05-21T01:50:19.098Z,95.00
2023-05-21T01:52:51.415Z,95.10
2023-05-21T01:55:19.513Z,95.30
2023-05-21T01:57:46.736Z,95.50
2023-05-21T02:00:14.219Z,95.50
2023-05-21T02:02:43.873Z,95.40
2023-05-21T02:05:11.034Z,95.20
2023-05-21T02:07:37.759Z,95.20
2023-05-21T02:10:04.731Z,95.00
2023-05-21T02:12:31.774Z,95.20
2023-05-21T02:14:58.884Z,95.70
2023-05-21T02:17:26.183Z,96.00
2023-05-21T02:19:53.205Z,96.20
2023-05-21T02:22:20.509Z,96.20
2023-05-21T02:24:47.259Z,96.10
2023-05-21T02:27:14.269Z,95.90
2023-05-21T02:29:41.198Z,96.00
2023-05-21T02:32:08.074Z,96.40
2023-05-21T02:34:34.992Z,96.30
2023-05-21T02:37:01.890Z,95.90
2023-05-21T02:39:28.652Z,95.70
2023-05-21T02:41:55.616Z,95.70
2023-05-21T02:44:24.019Z,95.80
2023-05-21T02:46:51.192Z,96.00
2023-05-21T02:49:18.782Z,96.20
2023-05-21T02:51:47.814Z,96.40
2023-05-21T02:54:15.394Z,96.50
2023-05-21T02:56:42.165Z,96.70
2023-05-21T02:59:08.950Z,96.80
2023-05-21T03:01:36.550Z,96.70
2023-05-21T03:04:04.123Z,96.70
2023-05-21T03:06:32.731Z,96.90
2023-05-21T03:08:59.500Z,97.20
2023-05-21T03:11:26.260Z,97.30
2023-05-21T03:13:53.625Z,97.10
2023-05-21T03:16:20.872Z,97.00
2023-05-21T03:18:48.109Z,97.30
2023-05-21T03:21:15.680Z,97.20
2023-05-21T03:23:42.625Z,97.40
2023-05-21T03:26:09.531Z,97.50
2023-05-21T03:28:36.405Z,97.50
2023-05-21T03:31:03.663Z,97.30
2023-05-21T03:33:43.369Z,97.60
2023-05-21T03:36:20.878Z,97.80
2023-05-21T03:38:47.710Z,97.80
2023-05-21T03:41:14.534Z,97.80
2023-05-21T03:43:44.810Z,97.80
2023-05-21T03:46:12.184Z,97.80
2023-05-21T03:49:17.266Z,98.10
2023-05-21T03:51:44.096Z,98.10
2023-05-21T03:54:14.664Z,98.30
2023-05-21T03:56:41.540Z,98.30
2023-05-21T03:59:08.876Z,98.30
2023-05-21T04:01:36.440Z,98.30
2023-05-21T04:04:03.510Z,98.30
2023-05-21T04:06:30.947Z,98.30
2023-05-21T04:08:58.185Z,98.10
2023-05-21T04:11:24.954Z,98.20
2023-05-21T04:13:52.361Z,98.00
2023-05-21T04:16:19.516Z,98.00
2023-05-21T04:18:47.358Z,97.80
2023-05-21T04:21:16.272Z,97.80
2023-05-21T04:23:43.389Z,97.80
2023-05-21T04:26:19.445Z,97.70
2023-05-21T04:28:46.316Z,97.70
2023-05-21T04:31:14.126Z,97.70
2023-05-21T04:33:45.845Z,97.70
2023-05-21T04:36:13.039Z,97.40
2023-05-21T04:38:41.800Z,97.30
2023-05-21T04:41:10.791Z,97.20
2023-05-21T04:43:38.262Z,97.40
2023-05-21T04:46:06.005Z,97.50
2023-05-21T04:48:33.712Z,97.40
2023-05-21T04:51:00.472Z,97.40
2023-05-21T04:53:27.540Z,97.30
2023-05-21T04:55:54.468Z,97.20
2023-05-21T04:58:21.324Z,97.10
2023-05-21T05:00:52.789Z,96.80
2023-05-21T05:03:20.546Z,96.50
2023-05-21T05:05:47.701Z,96.30
2023-05-21T05:08:16.005Z,96.40
2023-05-21T05:10:43.235Z,96.40
2023-05-21T05:13:10.093Z,96.40
2023-05-21T05:15:39.653Z,96.50
2023-05-21T05:18:08.506Z,96.60
2023-05-21T05:20:35.441Z,96.40
2023-05-21T05:23:02.231Z,95.90
2023-05-21T05:25:29.066Z,96.00
2023-05-21T05:27:58.000Z,96.20
2023-05-21T05:30:24.694Z,96.50
2023-05-21T05:32:51.913Z,96.50
2023-05-21T05:35:18.766Z,96.60
2023-05-21T05:37:45.561Z,96.30
2023-05-21T05:40:12.517Z,95.80
2023-05-21T05:42:39.703Z,95.60
2023-05-21T05:45:11.841Z,95.50
2023-05-21T05:47:39.980Z,95.30
2023-05-21T05:50:07.186Z,95.30
2023-05-21T05:52:34.099Z,95.20
2023-05-21T05:55:01.065Z,94.80
2023-05-21T05:57:28.009Z,94.70
2023-05-21T05:59:59.581Z,94.20
2023-05-21T06:02:26.610Z,93.90
2023-05-21T06:04:53.798Z,93.90
2023-05-21T06:07:20.555Z,94.20
2023-05-21T06:09:47.356Z,94.70
2023-05-21T06:12:15.984Z,94.50
2023-05-21T06:14:45.140Z,94.20
2023-05-21T06:17:12.837Z,93.90
2023-05-21T06:19:39.929Z,93.90
2023-05-21T06:22:07.338Z,93.70
2023-05-21T06:24:34.177Z,94.00
2023-05-21T06:27:02.004Z,93.70
2023-05-21T06:29:28.886Z,93.70
2023-05-21T06:31:56.040Z,93.10
2023-05-21T06:34:22.822Z,93.20
2023-05-21T06:36:49.639Z,92.80
2023-05-21T06:39:17.553Z,92.80
2023-05-21T06:41:44.596Z,92.20
2023-05-21T06:44:38.966Z,92.20
2023-05-21T06:47:23.887Z,92.50
2023-05-21T06:49:50.768Z,92.40
2023-05-21T06:52:17.550Z,92.50
2023-05-21T06:54:44.731Z,92.10
2023-05-21T06:57:11.671Z,91.50
2023-05-21T06:59:48.445Z,91.30
2023-05-21T07:02:18.294Z,91.30
2023-05-21T07:04:45.235Z,91.40
2023-05-21T07:07:15.683Z,91.30
2023-05-21T07:09:42.576Z,91.30
2023-05-21T07:12:09.467Z,91.20
2023-05-21T07:14:36.538Z,91.30
2023-05-21T07:17:03.582Z,91.20
2023-05-21T07:19:31.357Z,91.20
2023-05-21T07:21:59.074Z,91.20
2023-05-21T07:24:27.640Z,91.20
2023-05-21T07:26:54.675Z,91.40
2023-05-21T07:29:21.814Z,91.50
2023-05-21T07:31:48.771Z,91.00
2023-05-21T07:34:16.153Z,91.50
2023-05-21T07:36:43.031Z,91.10
2023-05-21T07:39:09.897Z,90.60
2023-05-21T07:41:38.018Z,90.30
2023-05-21T07:44:08.053Z,90.40
2023-05-21T07:46:38.827Z,90.70
2023-05-21T07:49:05.970Z,90.60
2023-05-21T07:51:44.216Z,90.20
2023-05-21T07:54:11.230Z,90.40
2023-05-21T07:56:38.645Z,90.70
2023-05-21T07:59:07.820Z,90.80
2023-05-21T08:01:37.362Z,90.80
2023-05-21T08:04:06.754Z,91.20
2023-05-21T08:06:35.194Z,90.20
2023-05-21T08:09:02.113Z,89.50
2023-05-21T08:11:29.626Z,88.90
2023-05-21T08:13:57.218Z,88.50
2023-05-21T08:16:24.389Z,88.80
2023-05-21T08:18:51.695Z,88.30
2023-05-21T08:21:18.815Z,88.50
2023-05-21T08:23:45.986Z,87.20
2023-05-21T08:26:13.192Z,87.20
2023-05-21T08:28:40.457Z,86.60
2023-05-21T08:31:07.297Z,86.20
2023-05-21T08:33:38.222Z,86.60
2023-05-21T08:36:07.368Z,86.10
2023-05-21T08:38:41.416Z,85.90
2023-05-21T08:41:18.358Z,85.20
2023-05-21T08:43:49.879Z,84.90
2023-05-21T08:46:21.782Z,84.50
2023-05-21T08:48:49.396Z,83.80
2023-05-21T08:51:17.118Z,83.90
2023-05-21T08:53:50.732Z,83.80
2023-05-21T08:56:22.689Z,83.70
2023-05-21T08:59:02.078Z,83.80
2023-05-21T09:01:34.537Z,83.40
2023-05-21T09:04:21.937Z,82.90
2023-05-21T09:06:53.674Z,82.50
2023-05-21T09:10:06.512Z,82.30
2023-05-21T09:12:35.378Z,81.90
2023-05-21T09:15:03.839Z,81.50
2023-05-21T09:17:37.289Z,81.20
2023-05-21T09:20:26.474Z,80.90
2023-05-21T09:23:03.626Z,80.80
2023-05-21T09:25:30.993Z,81.00
2023-05-21T09:28:03.060Z,80.90
2023-05-21T09:30:34.815Z,80.90
2023-05-21T09:33:03.482Z,80.40
2023-05-21T09:35:31.166Z,80.40
2023-05-21T09:37:57.987Z,80.50
2023-05-21T09:40:24.997Z,80.60
2023-05-21T09:42:53.924Z,80.80
2023-05-21T09:45:28.138Z,80.90
2023-05-21T09:47:57.799Z,80.20
2023-05-21T09:50:29.588Z,80.60
2023-05-21T09:52:56.461Z,80.20
2023-05-21T09:55:24.650Z,80.30
2023-05-21T09:57:52.784Z,79.40
2023-05-21T10:00:24.646Z,79.70
2023-05-21T10:03:13.356Z,79.90
2023-05-21T10:05:41.880Z,79.50
2023-05-21T10:08:11.344Z,78.80
2023-05-21T10:10:39.595Z,79.00
2023-05-21T10:13:08.987Z,79.10
2023-05-21T10:15:41.428Z,79.80
2023-05-21T10:18:10.713Z,79.10
2023-05-21T10:20:38.228Z,79.00
2023-05-21T10:23:06.091Z,77.30
2023-05-21T10:25:33.429Z,76.40
2023-05-21T10:28:00.479Z,75.30
2023-05-21T10:30:27.711Z,75.40
2023-05-21T10:32:57.218Z,75.00
2023-05-21T10:35:24.734Z,75.60
2023-05-21T10:37:52.792Z,76.10
2023-05-21T10:40:20.138Z,76.00
2023-05-21T10:43:08.728Z,76.70
2023-05-21T10:46:00.254Z,76.90
2023-05-21T10:49:00.138Z,76.80
2023-05-21T10:51:34.680Z,77.30
2023-05-21T10:54:27.910Z,77.60
2023-05-21T10:57:18.838Z,77.80
2023-05-21T10:59:49.334Z,77.70
2023-05-21T11:02:17.801Z,77.40
2023-05-21T11:04:45.346Z,77.50
2023-05-21T11:07:13.194Z,77.30
2023-05-21T11:09:39.975Z,78.20
2023-05-21T11:12:09.710Z,78.00
2023-05-21T11:14:39.699Z,77.50
2023-05-21T11:17:09.521Z,77.40
2023-05-21T11:19:41.415Z,77.10
2023-05-21T11:22:11.331Z,75.90
2023-05-21T11:24:40.470Z,75.10
2023-05-21T11:27:09.073Z,75.80
2023-05-21T11:29:44.838Z,75.70
2023-05-21T11:32:13.540Z,75.40
2023-05-21T11:34:47.796Z,74.80
2023-05-21T11:37:25.142Z,72.70
2023-05-21T11:39:52.769Z,72.60
2023-05-21T11:42:38.925Z,73.10
2023-05-21T11:45:06.748Z,73.40
2023-05-21T11:47:34.091Z,72.80
2023-05-21T11:50:03.796Z,72.90
2023-05-21T11:52:33.329Z,72.70
2023-05-21T11:55:01.213Z,72.50
2023-05-21T11:57:32.993Z,71.30
2023-05-21T12:00:02.383Z,70.50
2023-05-21T12:02:44.924Z,69.20
2023-05-21T12:05:13.596Z,69.10
2023-05-21T12:07:51.486Z,70.30
2023-05-21T12:10:23.279Z,70.50
2023-05-21T12:12:57.079Z,70.20
2023-05-21T12:15:27.736Z,69.70
2023-05-21T12:17:55.593Z,70.00
2023-05-21T12:20:23.260Z,69.50
2023-05-21T12:22:50.457Z,70.00
2023-05-21T12:25:25.292Z,69.60
2023-05-21T12:27:57.652Z,69.70
2023-05-21T12:30:28.213Z,69.30
2023-05-21T12:32:58.434Z,69.90
2023-05-21T12:35:25.565Z,68.50
2023-05-21T12:37:52.690Z,67.50
2023-05-21T12:40:20.281Z,68.60
2023-05-21T12:42:47.202Z,68.20
2023-05-21T12:45:14.588Z,68.40
2023-05-21T12:47:41.792Z,68.70
2023-05-21T12:50:11.690Z,68.10
2023-05-21T12:52:40.970Z,68.20
2023-05-21T12:55:10.288Z,68.70
2023-05-21T12:57:38.910Z,69.20
2023-05-21T13:00:07.400Z,68.80
2023-05-21T13:02:44.804Z,69.70
2023-05-21T13:05:17.759Z,69.40
2023-05-21T13:07:46.898Z,69.30
2023-05-21T13:10:16.845Z,69.20
2023-05-21T13:12:45.385Z,69.40
2023-05-21T13:15:12.488Z,69.60
2023-05-21T13:17:39.514Z,69.30
2023-05-21T13:20:17.797Z,69.60
2023-05-21T13:22:48.884Z,69.20
2023-05-21T13:25:18.862Z,70.70
2023-05-21T13:27:46.784Z,70.80
2023-05-21T13:30:14.318Z,69.20
2023-05-21T13:32:42.242Z,68.90
2023-05-21T13:35:10.161Z,68.80
2023-05-21T13:37:37.229Z,69.00
2023-05-21T13:40:05.869Z,69.30
2023-05-21T13:42:35.852Z,69.10
2023-05-21T13:45:02.698Z,69.50
2023-05-21T13:47:29.599Z,69.80
2023-05-21T13:49:57.854Z,69.60
2023-05-21T13:52:27.072Z,69.40
2023-05-21T13:54:53.840Z,69.20
2023-05-21T13:57:23.719Z,70.70
2023-05-21T13:59:50.952Z,70.40
2023-05-21T14:02:18.038Z,69.70
2023-05-21T14:04:44.950Z,70.90
2023-05-21T14:07:14.791Z,71.20
2023-05-21T14:09:42.342Z,69.40
2023-05-21T14:12:09.448Z,69.10
2023-05-21T14:14:36.471Z,68.80
2023-05-21T14:17:06.512Z,67.90
2023-05-21T14:19:33.582Z,67.80
2023-05-21T14:22:00.518Z,67.90
2023-05-21T14:24:27.316Z,67.10
2023-05-21T14:26:54.082Z,67.00
2023-05-21T14:29:20.906Z,66.40
2023-05-21T14:31:47.768Z,66.40
2023-05-21T14:34:14.626Z,66.40
2023-05-21T14:36:44.732Z,66.70
2023-05-21T14:39:11.645Z,66.80
2023-05-21T14:41:39.126Z,67.00
2023-05-21T14:44:05.907Z,67.30
2023-05-21T14:46:32.996Z,67.90
2023-05-21T14:49:00.611Z,68.20
2023-05-21T14:51:27.653Z,68.70
2023-05-21T14:53:55.726Z,68.60
2023-05-21T14:56:25.085Z,68.30
2023-05-21T14:58:52.072Z,68.20
2023-05-21T15:01:19.209Z,69.20
2023-05-21T15:03:46.199Z,69.50
2023-05-21T15:06:13.721Z,69.30
2023-05-21T15:08:42.918Z,69.50
2023-05-21T15:11:10.017Z,69.70
2023-05-21T15:13:36.953Z,69.40
2023-05-21T15:16:04.060Z,70.00
2023-05-21T15:18:31.072Z,71.00
2023-05-21T15:20:58.602Z,70.20
2023-05-21T15:23:25.593Z,71.10
2023-05-21T15:25:52.568Z,70.80
2023-05-21T15:28:20.002Z,71.00
2023-05-21T15:30:46.829Z,71.00
2023-05-21T15:33:16.119Z,71.20
2023-05-21T15:35:46.303Z,71.90
2023-05-21T15:38:13.435Z,72.10
2023-05-21T15:40:43.509Z,72.80
2023-05-21T15:43:11.133Z,73.20
2023-05-21T15:45:38.892Z,73.80
2023-05-21T15:48:07.027Z,73.60
2023-05-21T15:50:35.618Z,73.30
2023-05-21T15:53:07.607Z,73.20
2023-05-21T15:55:35.248Z,73.40
2023-05-21T15:58:03.992Z,73.60
2023-05-21T16:00:30.768Z,73.30
2023-05-21T16:02:57.796Z,73.50
2023-05-21T16:05:24.735Z,73.60
2023-05-21T16:07:54.630Z,73.90
2023-05-21T16:10:22.423Z,74.20
2023-05-21T16:12:49.520Z,74.30
2023-05-21T16:15:16.768Z,74.40
2023-05-21T16:17:44.121Z,74.30
2023-05-21T16:20:12.275Z,74.30
2023-05-21T16:22:40.197Z,73.50
2023-05-21T16:25:07.568Z,73.50
2023-05-21T16:27:35.563Z,73.30
2023-05-21T16:30:02.616Z,73.50
2023-05-21T16:32:29.476Z,73.50
2023-05-21T16:34:56.285Z,73.50
2023-05-21T16:37:23.038Z,73.90
2023-05-21T16:39:49.839Z,73.80
2023-05-21T16:42:16.716Z,73.60
2023-05-21T16:44:43.521Z,73.20
2023-05-21T16:47:12.929Z,73.50
2023-05-21T16:49:39.676Z,73.40
2023-05-21T16:52:06.485Z,73.50
2023-05-21T16:54:34.364Z,73.90
2023-05-21T16:57:01.193Z,73.60
2023-05-21T16:59:28.577Z,73.70
2023-05-21T17:01:55.375Z,74.20
2023-05-21T17:04:22.110Z,73.70
2023-05-21T17:06:48.861Z,73.40
2023-05-21T17:09:17.082Z,73.50
2023-05-21T17:11:45.805Z,73.60
2023-05-21T17:14:17.545Z,73.90
2023-05-21T17:16:50.656Z,73.80
2023-05-21T17:19:17.452Z,73.90
2023-05-21T17:21:44.338Z,74.30
2023-05-21T17:24:11.253Z,74.30
2023-05-21T17:26:38.042Z,74.90
2023-05-21T17:29:04.746Z,75.50
2023-05-21T17:31:32.873Z,75.60
2023-05-21T17:34:00.988Z,76.20
2023-05-21T17:36:27.902Z,76.60
2023-05-21T17:38:54.855Z,77.00
2023-05-21T17:41:22.512Z,77.30
2023-05-21T17:43:49.617Z,77.70
2023-05-21T17:46:18.137Z,77.80
2023-05-21T17:48:45.257Z,78.10
2023-05-21T17:51:14.580Z,78.50
2023-05-21T17:53:45.169Z,79.60
2023-05-21T17:56:16.345Z,79.60
2023-05-21T17:58:47.580Z,80.20
2023-05-21T18:01:37.348Z,79.70
2023-05-21T18:04:16.562Z,80.00
2023-05-21T18:06:44.338Z,81.20
2023-05-21T18:09:15.519Z,81.60
2023-05-21T18:11:43.728Z,81.70
2023-05-21T18:14:10.661Z,82.20
2023-05-21T18:16:37.638Z,82.50
2023-05-21T18:19:07.849Z,83.30
2023-05-21T18:21:35.269Z,83.10
2023-05-21T18:24:02.579Z,83.60
2023-05-21T18:26:36.422Z,84.40
2023-05-21T18:29:03.278Z,85.00
2023-05-21T18:31:35.969Z,85.00
2023-05-21T18:34:02.821Z,85.20
2023-05-21T18:36:44.428Z,85.50
2023-05-21T18:39:11.510Z,85.90
2023-05-21T18:41:41.429Z,86.30
2023-05-21T18:44:11.355Z,86.20
2023-05-21T18:46:38.534Z,86.20
2023-05-21T18:49:05.930Z,86.40
2023-05-21T18:51:33.172Z,86.30
2023-05-21T18:54:01.306Z,86.70
2023-05-21T18:56:34.249Z,86.90
2023-05-21T18:59:01.509Z,87.10
2023-05-21T19:01:34.504Z,87.40
2023-05-21T19:04:01.806Z,87.80
2023-05-21T19:06:28.751Z,87.40
2023-05-21T19:08:55.702Z,87.80
2023-05-21T19:11:23.576Z,88.50
2023-05-21T19:13:51.135Z,89.50
2023-05-21T19:16:17.999Z,89.60
2023-05-21T19:18:44.963Z,89.60
2023-05-21T19:21:17.612Z,90.00
2023-05-21T19:23:52.569Z,90.10
2023-05-21T19:26:22.479Z,90.20
2023-05-21T19:28:54.269Z,90.20
2023-05-21T19:31:22.863Z,90.00
2023-05-21T19:33:51.170Z,90.00
2023-05-21T19:36:18.769Z,89.80
2023-05-21T19:38:48.366Z,89.50
2023-05-21T19:41:19.506Z,89.60
2023-05-21T19:43:54.240Z,89.40
2023-05-21T19:46:21.336Z,89.00
2023-05-21T19:48:51.740Z,89.60
2023-05-21T19:51:18.809Z,89.40
2023-05-21T19:53:45.606Z,89.50
2023-05-21T19:56:12.781Z,89.70
2023-05-21T19:58:41.401Z,90.00
2023-05-21T20:01:08.366Z,89.90
2023-05-21T20:03:38.159Z,90.00
2023-05-21T20:06:05.392Z,90.80
2023-05-21T20:08:32.230Z,90.90
2023-05-21T20:10:59.076Z,91.00
2023-05-21T20:13:25.796Z,91.10
2023-05-21T20:15:52.790Z,91.00
2023-05-21T20:18:22.366Z,91.70
2023-05-21T20:20:49.386Z,91.60
2023-05-21T20:23:16.206Z,91.90
2023-05-21T20:25:43.449Z,91.80
2023-05-21T20:28:13.032Z,92.00
2023-05-21T20:30:59.620Z,92.20
2023-05-21T20:33:27.816Z,92.30
2023-05-21T20:35:54.861Z,92.30
2023-05-21T20:38:22.012Z,92.60
2023-05-21T20:40:48.750Z,92.70
2023-05-21T20:43:15.892Z,92.90
2023-05-21T20:45:43.626Z,92.60
2023-05-21T20:48:11.929Z,92.90
2023-05-21T20:50:40.880Z,93.20
2023-05-21T20:53:08.452Z,93.10
2023-05-21T20:55:35.346Z,93.20
2023-05-21T20:58:05.745Z,93.00
2023-05-21T21:00:33.384Z,93.20
2023-05-21T21:03:03.678Z,93.20
2023-05-21T21:05:30.882Z,93.40
2023-05-21T21:08:02.503Z,93.30
2023-05-21T21:10:29.743Z,93.70
2023-05-21T21:12:56.571Z,93.40
2023-05-21T21:15:23.313Z,93.50
2023-05-21T21:17:50.351Z,93.50
2023-05-21T21:20:18.584Z,93.70
2023-05-21T21:22:46.086Z,93.50
2023-05-21T21:25:16.330Z,93.90
2023-05-21T21:27:43.394Z,93.90
2023-05-21T21:30:10.677Z,93.90
2023-05-21T21:32:40.559Z,94.20
2023-05-21T21:35:07.708Z,94.10
2023-05-21T21:37:34.570Z,94.20
2023-05-21T21:40:01.324Z,94.20
2023-05-21T21:42:28.126Z,94.50
2023-05-21T21:44:54.865Z,94.10
2023-05-21T21:47:21.983Z,94.30
2023-05-21T21:49:49.151Z,94.40
2023-05-21T21:52:17.381Z,94.60
2023-05-21T21:54:44.235Z,94.60
2023-05-21T21:57:11.050Z,94.80
2023-05-21T21:59:39.521Z,95.10
2023-05-21T22:02:06.515Z,95.30
2023-05-21T22:04:33.356Z,95.40
2023-05-21T22:07:01.682Z,95.80
2023-05-21T22:09:28.637Z,95.80
2023-05-21T22:11:55.655Z,95.90
2023-05-21T22:14:22.632Z,95.80
2023-05-21T22:16:49.585Z,95.80
2023-05-21T22:19:20.476Z,95.60
2023-05-21T22:21:47.532Z,95.70
2023-05-21T22:24:30.223Z,95.90
2023-05-21T22:26:58.671Z,96.10
2023-05-21T22:29:25.510Z,96.40
2023-05-21T22:31:52.387Z,96.60
2023-05-21T22:34:19.370Z,96.70
2023-05-21T22:36:48.087Z,96.70
2023-05-21T22:39:14.848Z,96.60
2023-05-21T22:41:42.276Z,96.50
2023-05-21T22:44:09.461Z,96.60
2023-05-21T22:46:36.318Z,96.50
2023-05-21T22:49:03.439Z,96.70
2023-05-21T22:51:34.976Z,96.70
2023-05-21T22:54:02.273Z,96.60
2023-05-21T22:56:29.415Z,96.70
2023-05-21T22:58:56.460Z,96.60
2023-05-21T23:01:23.741Z,96.60
2023-05-21T23:03:55.056Z,96.80
2023-05-21T23:06:24.877Z,97.10
2023-05-21T23:08:51.587Z,97.00
2023-05-21T23:11:18.359Z,97.20
2023-05-21T23:13:45.072Z,97.30
2023-05-21T23:16:12.550Z,97.50
2023-05-21T23:18:40.914Z,97.30
2023-05-21T23:21:07.969Z,97.10
2023-05-21T23:23:35.830Z,97.20
2023-05-21T23:26:02.613Z,97.10
2023-05-21T23:28:29.325Z,97.50
2023-05-21T23:30:56.182Z,97.50
2023-05-21T23:33:23.010Z,97.90
2023-05-21T23:35:49.729Z,97.70
2023-05-21T23:38:16.929Z,97.70
2023-05-21T23:40:43.731Z,97.70
2023-05-21T23:43:10.604Z,97.60
2023-05-21T23:45:37.789Z,97.40
2023-05-21T23:48:04.942Z,97.40
2023-05-21T23:50:31.822Z,97.40
2023-05-21T23:52:59.260Z,97.50
2023-05-21T23:55:26.134Z,97.70
2023-05-21T23:57:53.039Z,97.70
